Back to top

Yellowstone, WY weather

Yellowstone (RAMOS), Yellowstone, WY: 8/18/2022 03:56
Visibilityunavailableclear sky
View 7-Day Forecast
Area Summary
Sky/Clouds
Weather [last 24 hours]None
Pressure30.46 in.Hg (1032 hPa)
Dew Point37 °F (2.8 °C)
Relative Humidity85.7 %
Temperature41 °F (5 °C)red thermometer
Reading TimeMinimum to Maximum Temperature
6-hr ending 8/17@23:5646.9 °F to 73.9 °F (8.3 °C to 23.3 °C)
6-hr ending 8/17@17:5664.9 °F to 78.1 °F (18.3 °C to 25.6 °C)
6-hr ending 8/17@11:5641 °F to 66 °F (5 °C to 18.9 °C)
6-hr ending 8/17@05:5641 °F to 50 °F (5 °C to 10 °C)
24-hr ending 8/18@00:5641 °F to 78.1 °F (5 °C to 25.6 °C)
Wind0 MPH (0 KT) green arrow pointing at 0 degrees
Wind FromNorth (000 Degrees)
Twilight Begins05:57Sunshine Yesterday
Sunrise06:28N/A
Sunset20:22
Twilight Ends20:53
METARKP60 180956Z AUTO 00000KT 05/03 A3046 RMK AO1 SLP238 T00500028
Tags: